Time;durP1;ratioP1;P1;durP2;ratioP2;P2;SDS_P1;SDS_P2;PMS_P1;PMS_P2;Temp;Humidity;BMP_temperature;BMP_pressure;BME280_temperature;BME280_humidity;BME280_pressure;Samples;Min_cycle;Max_cycle;Signal;HPM_P1;HPM_P2
2023/04/28 00:01:15;;;;;;;;;;;6.20;99.90;;;;;;5072805;28;19972;-65
2023/04/28 00:03:40;;;;;;;;;;;6.20;99.90;;;;;;5073190;28;19932;-65
2023/04/28 00:06:06;;;;;;;;;;;6.20;99.90;;;;;;5073154;28;19994;-67
2023/04/28 00:08:32;;;;;;;;;;;6.10;99.90;;;;;;5072706;28;20490;-66
2023/04/28 00:10:57;;;;;;;;;;;6.10;99.90;;;;;;5073359;28;19931;-65
2023/04/28 00:13:23;;;;;;;;;;;6.10;99.90;;;;;;5072497;28;20365;-65
2023/04/28 00:15:49;;;;;;;;;;;6.00;99.90;;;;;;5038668;28;19931;-65
2023/04/28 00:18:15;;;;;;;;;;;6.00;99.90;;;;;;5072622;28;19925;-66
2023/04/28 00:20:40;;;;;;;;;;;6.00;99.90;;;;;;5072885;28;20019;-65
2023/04/28 00:23:06;;;;;;;;;;;6.00;99.90;;;;;;5072920;28;20362;-66
2023/04/28 00:25:32;;;;;;;;;;;5.90;99.90;;;;;;5071147;28;19925;-65
2023/04/28 00:27:57;;;;;;;;;;;5.90;99.90;;;;;;5071554;28;19933;-65
2023/04/28 00:30:24;;;;;;;;;;;5.90;99.90;;;;;;5072321;28;19931;-65
2023/04/28 00:32:49;;;;;;;;;;;5.90;99.90;;;;;;5072574;28;20255;-65
2023/04/28 00:35:15;;;;;;;;;;;5.80;99.90;;;;;;5072603;28;19932;-65
2023/04/28 00:37:40;;;;;;;;;;;5.90;99.90;;;;;;5104387;28;19929;-65
2023/04/28 00:40:06;;;;;;;;;;;5.80;99.90;;;;;;5071526;28;20394;-65
2023/04/28 00:42:32;;;;;;;;;;;5.80;99.90;;;;;;5072133;28;19925;-65
2023/04/28 00:44:57;;;;;;;;;;;5.80;99.90;;;;;;5072243;28;19979;-65
2023/04/28 00:47:23;;;;;;;;;;;5.80;99.90;;;;;;5071969;28;19928;-65
2023/04/28 00:49:49;;;;;;;;;;;5.70;99.90;;;;;;5072429;28;19977;-65
2023/04/28 00:52:15;;;;;;;;;;;5.80;99.90;;;;;;5071437;28;19925;-65
2023/04/28 00:54:41;;;;;;;;;;;5.80;99.90;;;;;;5072056;28;19944;-65
2023/04/28 00:57:08;;;;;;;;;;;5.70;99.90;;;;;;5105144;28;19924;-65
2023/04/28 00:59:34;;;;;;;;;;;5.70;99.90;;;;;;5070618;28;19925;-65
2023/04/28 01:02:00;;;;;;;;;;;5.70;99.90;;;;;;5072350;28;19925;-65
2023/04/28 01:04:27;;;;;;;;;;;5.70;99.90;;;;;;5071970;28;19925;-65
2023/04/28 01:06:54;;;;;;;;;;;5.70;99.90;;;;;;5072493;28;19985;-65
2023/04/28 01:09:20;;;;;;;;;;;5.60;99.90;;;;;;5072065;28;19924;-66
2023/04/28 01:11:45;;;;;;;;;;;5.60;99.90;;;;;;5071897;28;20384;-65
2023/04/28 01:14:11;;;;;;;;;;;5.60;99.90;;;;;;5070685;28;20394;-65
2023/04/28 01:16:37;;;;;;;;;;;5.60;99.90;;;;;;5071871;28;19925;-65
2023/04/28 01:19:04;;;;;;;;;;;5.60;99.90;;;;;;5072037;28;20369;-65
2023/04/28 01:21:31;;;;;;;;;;;5.50;99.90;;;;;;5071033;28;19925;-65
2023/04/28 01:23:57;;;;;;;;;;;5.50;99.90;;;;;;5071154;28;19965;-65
2023/04/28 01:26:23;;;;;;;;;;;5.50;99.90;;;;;;5071881;28;19944;-65
2023/04/28 01:28:48;;;;;;;;;;;5.50;99.90;;;;;;5071910;28;20015;-64
2023/04/28 01:31:14;;;;;;;;;;;5.50;99.90;;;;;;5071930;28;20369;-65
2023/04/28 01:33:39;;;;;;;;;;;5.50;99.90;;;;;;5071586;28;19924;-65
2023/04/28 01:36:05;;;;;;;;;;;5.50;99.90;;;;;;5071847;28;19925;-65
2023/04/28 01:38:31;;;;;;;;;;;5.50;99.90;;;;;;5070050;28;20019;-64
2023/04/28 01:40:57;;;;;;;;;;;5.50;99.90;;;;;;5071872;28;20373;-64
2023/04/28 01:43:23;;;;;;;;;;;5.50;99.90;;;;;;5071915;28;19932;-64
2023/04/28 01:45:48;;;;;;;;;;;5.50;99.90;;;;;;5071418;28;19925;-64
2023/04/28 01:48:14;;;;;;;;;;;5.50;99.90;;;;;;5071691;28;19947;-64
2023/04/28 01:50:39;;;;;;;;;;;5.50;99.90;;;;;;5071353;28;20011;-64
2023/04/28 01:53:05;;;;;;;;;;;5.50;99.90;;;;;;5071725;28;20263;-65
2023/04/28 01:55:31;;;;;;;;;;;5.50;99.90;;;;;;5071571;28;19928;-66
2023/04/28 01:57:57;;;;;;;;;;;5.50;99.90;;;;;;5075473;28;20125;-65
2023/04/28 02:00:23;;;;;;;;;;;5.50;99.90;;;;;;5075133;28;20459;-64
2023/04/28 02:02:48;;;;;;;;;;;5.50;99.90;;;;;;5074055;28;19924;-64
2023/04/28 02:05:14;;;;;;;;;;;5.50;99.90;;;;;;5075165;28;19931;-64
2023/04/28 02:07:40;;;;;;;;;;;5.50;99.90;;;;;;5074969;28;19968;-65
2023/04/28 02:10:06;;;;;;;;;;;5.50;99.90;;;;;;5074367;28;19950;-65
2023/04/28 02:12:32;;;;;;;;;;;5.50;99.90;;;;;;5073715;28;19928;-65
2023/04/28 02:14:58;;;;;;;;;;;5.50;99.90;;;;;;5075249;28;19950;-66
2023/04/28 02:17:23;;;;;;;;;;;5.50;99.90;;;;;;5073959;28;19925;-65
2023/04/28 02:19:53;;;;;;;;;;;5.50;99.90;;;;;;5073792;28;19920;-64
2023/04/28 02:22:19;;;;;;;;;;;5.50;99.90;;;;;;5075132;28;19947;-65
2023/04/28 02:24:44;;;;;;;;;;;5.60;99.90;;;;;;5075010;28;19928;-64
2023/04/28 02:27:10;;;;;;;;;;;5.60;99.90;;;;;;5075007;28;20246;-64
2023/04/28 02:29:35;;;;;;;;;;;5.60;99.90;;;;;;5074356;28;19924;-65
2023/04/28 02:32:01;;;;;;;;;;;5.60;99.90;;;;;;5057381;28;19924;-65
2023/04/28 02:34:27;;;;;;;;;;;5.60;99.90;;;;;;5074818;28;19930;-65
2023/04/28 02:36:52;;;;;;;;;;;5.60;99.90;;;;;;5074270;28;19989;-65
2023/04/28 02:39:20;;;;;;;;;;;5.60;99.90;;;;;;5074820;28;20382;-65
2023/04/28 02:41:46;;;;;;;;;;;5.60;99.90;;;;;;5074268;28;20064;-66
2023/04/28 02:44:12;;;;;;;;;;;5.60;99.90;;;;;;5073766;28;19925;-64
2023/04/28 02:46:37;;;;;;;;;;;5.60;99.90;;;;;;5074329;28;20388;-65
2023/04/28 02:49:03;;;;;;;;;;;5.60;99.90;;;;;;5074505;28;20038;-64
2023/04/28 02:51:28;;;;;;;;;;;5.60;99.90;;;;;;5074504;28;20327;-65
2023/04/28 02:53:54;;;;;;;;;;;5.60;99.90;;;;;;5074251;28;20451;-65
2023/04/28 02:56:20;;;;;;;;;;;5.60;99.90;;;;;;5056573;28;20262;-65
2023/04/28 02:58:45;;;;;;;;;;;5.60;99.90;;;;;;5072644;28;19939;-65
2023/04/28 03:01:11;;;;;;;;;;;5.60;99.90;;;;;;5074274;28;20280;-64
2023/04/28 03:03:37;;;;;;;;;;;5.60;99.90;;;;;;5072904;28;19924;-65
2023/04/28 03:06:03;;;;;;;;;;;5.60;99.90;;;;;;5072990;28;20298;-65
2023/04/28 03:08:28;;;;;;;;;;;5.60;99.90;;;;;;5074187;28;19950;-65
2023/04/28 03:10:54;;;;;;;;;;;5.60;99.90;;;;;;5072168;28;20210;-65
2023/04/28 03:13:20;;;;;;;;;;;5.60;99.90;;;;;;5056227;28;19924;-64
2023/04/28 03:15:45;;;;;;;;;;;5.60;99.90;;;;;;5073635;28;19924;-65
2023/04/28 03:18:11;;;;;;;;;;;5.70;99.90;;;;;;5073991;28;19925;-65
2023/04/28 03:20:37;;;;;;;;;;;5.70;99.90;;;;;;5073639;28;20366;-66
2023/04/28 03:23:02;;;;;;;;;;;5.70;99.90;;;;;;5073615;28;19928;-65
2023/04/28 03:25:28;;;;;;;;;;;5.80;99.90;;;;;;5073867;28;19947;-66
2023/04/28 03:27:53;;;;;;;;;;;5.80;99.90;;;;;;5073494;28;19925;-66
2023/04/28 03:30:19;;;;;;;;;;;5.80;99.90;;;;;;5072797;28;19931;-66
2023/04/28 03:32:45;;;;;;;;;;;5.80;99.90;;;;;;5038820;28;19928;-66
2023/04/28 03:35:11;;;;;;;;;;;5.90;99.90;;;;;;5073981;28;19966;-65
2023/04/28 03:37:36;;;;;;;;;;;5.90;99.90;;;;;;5072371;28;20011;-65
2023/04/28 03:40:02;;;;;;;;;;;5.90;99.90;;;;;;5055526;28;20362;-65
2023/04/28 03:42:27;;;;;;;;;;;5.90;99.90;;;;;;5073392;28;19925;-65
2023/04/28 03:44:53;;;;;;;;;;;5.90;99.90;;;;;;5073008;28;19971;-64
2023/04/28 03:47:18;;;;;;;;;;;5.90;99.90;;;;;;5071923;28;20409;-64
2023/04/28 03:49:44;;;;;;;;;;;5.90;99.90;;;;;;5073098;28;20029;-65
2023/04/28 03:52:10;;;;;;;;;;;5.80;99.90;;;;;;5073318;28;20286;-65
2023/04/28 03:54:35;;;;;;;;;;;5.80;99.90;;;;;;5072972;28;20019;-65
2023/04/28 03:57:01;;;;;;;;;;;5.80;99.90;;;;;;5105776;28;19921;-65
2023/04/28 03:59:27;;;;;;;;;;;5.80;99.90;;;;;;5071937;28;19974;-65
2023/04/28 04:01:52;;;;;;;;;;;5.80;99.90;;;;;;5072957;28;19928;-65
2023/04/28 04:04:18;;;;;;;;;;;5.80;99.90;;;;;;5072763;28;19924;-65
2023/04/28 04:06:43;;;;;;;;;;;5.70;99.90;;;;;;5105166;28;19924;-66
2023/04/28 04:09:09;;;;;;;;;;;5.80;99.90;;;;;;5072873;28;20362;-65
2023/04/28 04:11:35;;;;;;;;;;;5.70;99.90;;;;;;5072836;28;20431;-65
2023/04/28 04:14:00;;;;;;;;;;;5.70;99.90;;;;;;5072259;28;19986;-65
2023/04/28 04:16:26;;;;;;;;;;;5.70;99.90;;;;;;5072492;28;20468;-65
2023/04/28 04:18:51;;;;;;;;;;;5.70;99.90;;;;;;5070597;28;19979;-65
2023/04/28 04:21:17;;;;;;;;;;;5.70;99.90;;;;;;5072989;28;19967;-65
2023/04/28 04:23:42;;;;;;;;;;;5.70;99.90;;;;;;5072726;28;19924;-65
2023/04/28 04:26:08;;;;;;;;;;;5.70;99.90;;;;;;5070841;28;20065;-65
2023/04/28 04:28:34;;;;;;;;;;;5.70;99.90;;;;;;5054997;28;19924;-65
2023/04/28 04:30:59;;;;;;;;;;;5.30;99.90;;;;;;5072267;28;20011;-65
2023/04/28 04:33:25;;;;;;;;;;;5.70;99.90;;;;;;5072330;28;20374;-65
2023/04/28 04:35:50;;;;;;;;;;;5.70;99.90;;;;;;5071806;28;20346;-65
2023/04/28 04:38:16;;;;;;;;;;;5.70;99.90;;;;;;5072452;28;19932;-64
2023/04/28 04:40:41;;;;;;;;;;;5.80;99.90;;;;;;5071156;28;19974;-65
2023/04/28 04:43:07;;;;;;;;;;;5.70;99.90;;;;;;5071032;28;20082;-64
2023/04/28 04:45:33;;;;;;;;;;;5.70;99.90;;;;;;5072222;28;19924;-65
2023/04/28 04:47:58;;;;;;;;;;;5.70;99.90;;;;;;5070858;28;19924;-65
2023/04/28 04:50:24;;;;;;;;;;;5.70;99.90;;;;;;5071936;28;19924;-65
2023/04/28 04:52:49;;;;;;;;;;;5.80;99.90;;;;;;5072067;28;19924;-66
2023/04/28 04:55:15;;;;;;;;;;;5.70;99.90;;;;;;5072293;28;20285;-65
2023/04/28 04:57:41;;;;;;;;;;;5.80;99.90;;;;;;5070888;28;20023;-65
2023/04/28 05:00:07;;;;;;;;;;;5.80;99.90;;;;;;5070370;28;19974;-65
2023/04/28 05:02:32;;;;;;;;;;;5.80;99.90;;;;;;5072185;28;19928;-65
2023/04/28 05:04:58;;;;;;;;;;;5.80;99.90;;;;;;5071736;28;20340;-65
2023/04/28 05:07:25;;;;;;;;;;;5.70;99.90;;;;;;5071970;28;19967;-64
2023/04/28 05:09:51;;;;;;;;;;;5.70;99.90;;;;;;5104228;28;20008;-66
2023/04/28 05:12:16;;;;;;;;;;;5.80;99.90;;;;;;5054328;28;19974;-64
2023/04/28 05:14:42;;;;;;;;;;;5.80;99.90;;;;;;5071998;28;19924;-65
2023/04/28 05:17:07;;;;;;;;;;;5.80;99.90;;;;;;5071285;28;19932;-64
2023/04/28 05:19:33;;;;;;;;;;;5.80;99.90;;;;;;5070965;28;20062;-64
2023/04/28 05:21:59;;;;;;;;;;;5.80;99.90;;;;;;5071603;28;19924;-65
2023/04/28 05:24:25;;;;;;;;;;;5.80;99.90;;;;;;5071805;28;19985;-65
2023/04/28 05:26:51;;;;;;;;;;;5.80;99.90;;;;;;5070852;28;19924;-66
2023/04/28 05:29:17;;;;;;;;;;;5.80;99.90;;;;;;5071526;28;19925;-65
2023/04/28 05:31:42;;;;;;;;;;;5.80;99.90;;;;;;5073831;28;19928;-64
2023/04/28 05:34:08;;;;;;;;;;;5.80;99.90;;;;;;5075334;28;19987;-64
2023/04/28 05:36:34;;;;;;;;;;;5.90;99.90;;;;;;5074375;28;20408;-65
2023/04/28 05:38:59;;;;;;;;;;;5.90;99.90;;;;;;5075619;28;19970;-65
2023/04/28 05:41:25;;;;;;;;;;;5.90;99.90;;;;;;5076009;28;20315;-65
2023/04/28 05:43:50;;;;;;;;;;;5.90;99.90;;;;;;5075665;28;19928;-65
2023/04/28 05:46:16;;;;;;;;;;;5.90;99.90;;;;;;5074984;28;19924;-65
2023/04/28 05:48:42;;;;;;;;;;;6.00;99.90;;;;;;5075550;28;19924;-65
2023/04/28 05:51:07;;;;;;;;;;;6.00;99.90;;;;;;5073911;28;19924;-65
2023/04/28 05:53:33;;;;;;;;;;;6.00;99.90;;;;;;5074472;28;20374;-64
2023/04/28 05:55:59;;;;;;;;;;;6.10;99.90;;;;;;5074796;28;19978;-64
2023/04/28 05:58:24;;;;;;;;;;;6.10;99.90;;;;;;5075473;28;19924;-64
2023/04/28 06:00:50;;;;;;;;;;;6.10;99.90;;;;;;5075279;28;19935;-64
2023/04/28 06:03:17;;;;;;;;;;;6.20;99.90;;;;;;5073824;28;20548;-65
2023/04/28 06:05:43;;;;;;;;;;;6.20;99.90;;;;;;5074326;28;19924;-65
2023/04/28 06:08:09;;;;;;;;;;;6.20;99.90;;;;;;5074836;28;19925;-65
2023/04/28 06:10:35;;;;;;;;;;;6.20;99.90;;;;;;5075016;28;20431;-64
2023/04/28 06:13:03;;;;;;;;;;;6.20;99.90;;;;;;5073267;28;19928;-65
2023/04/28 06:15:29;;;;;;;;;;;6.40;99.90;;;;;;5057512;28;20023;-65
2023/04/28 06:17:55;;;;;;;;;;;6.30;99.90;;;;;;5074907;28;19925;-65
2023/04/28 06:20:20;;;;;;;;;;;6.30;99.90;;;;;;5073412;28;20070;-65
2023/04/28 06:22:46;;;;;;;;;;;6.40;99.90;;;;;;5074115;28;19928;-66
2023/04/28 06:25:11;;;;;;;;;;;6.40;99.90;;;;;;5074505;28;19925;-66
2023/04/28 06:27:37;;;;;;;;;;;6.50;99.90;;;;;;5073782;28;19924;-65
2023/04/28 06:30:03;;;;;;;;;;;6.50;99.90;;;;;;5074507;28;19924;-66
2023/04/28 06:32:28;;;;;;;;;;;6.50;99.90;;;;;;5074768;28;19924;-63
2023/04/28 06:34:54;;;;;;;;;;;6.60;99.90;;;;;;5074863;28;19951;-69
2023/04/28 06:37:20;;;;;;;;;;;6.70;99.90;;;;;;5056314;28;19931;-69
2023/04/28 06:39:45;;;;;;;;;;;6.70;99.90;;;;;;5089757;28;19924;-68
2023/04/28 06:42:11;;;;;;;;;;;6.70;99.90;;;;;;5071925;28;20319;-69
2023/04/28 06:44:37;;;;;;;;;;;6.80;99.90;;;;;;5072608;28;19924;-69
2023/04/28 06:47:02;;;;;;;;;;;6.90;99.90;;;;;;5072125;28;19924;-70
2023/04/28 06:49:28;;;;;;;;;;;6.90;99.90;;;;;;5072656;28;20022;-69
2023/04/28 06:51:53;;;;;;;;;;;7.00;99.90;;;;;;5056097;28;20369;-69
2023/04/28 06:54:19;;;;;;;;;;;7.00;99.90;;;;;;5055316;28;20369;-68
2023/04/28 06:56:44;;;;;;;;;;;7.10;99.90;;;;;;5056137;28;19935;-68
2023/04/28 06:59:10;;;;;;;;;;;7.10;99.90;;;;;;5073326;28;20418;-69
2023/04/28 07:01:36;;;;;;;;;;;7.20;99.90;;;;;;5055794;28;19928;-70
2023/04/28 07:04:01;;;;;;;;;;;7.30;99.90;;;;;;5072313;28;19925;-68
2023/04/28 07:06:28;;;;;;;;;;;7.30;99.90;;;;;;5055027;28;19925;-69
2023/04/28 07:08:54;;;;;;;;;;;7.40;99.90;;;;;;5055598;28;19947;-70
2023/04/28 07:11:20;;;;;;;;;;;7.40;99.90;;;;;;5038813;28;19925;-68
2023/04/28 07:13:48;;;;;;;;;;;7.40;99.90;;;;;;5073230;28;20327;-69
2023/04/28 07:16:13;;;;;;;;;;;7.40;99.90;;;;;;5072792;28;19925;-68
2023/04/28 07:18:39;;;;;;;;;;;7.40;99.90;;;;;;5072005;28;19932;-68
2023/04/28 07:21:05;;;;;;;;;;;7.40;99.90;;;;;;5055446;28;19932;-71
2023/04/28 07:23:31;;;;;;;;;;;7.50;99.90;;;;;;5071503;28;20281;-68
2023/04/28 07:25:57;;;;;;;;;;;7.60;99.90;;;;;;5038917;28;20011;-69
2023/04/28 07:28:22;;;;;;;;;;;7.70;99.90;;;;;;5055005;28;19951;-69
2023/04/28 07:30:48;;;;;;;;;;;7.80;99.90;;;;;;5072904;28;19924;-68
2023/04/28 07:33:13;;;;;;;;;;;7.80;99.90;;;;;;5072416;28;19971;-69
2023/04/28 07:35:39;;;;;;;;;;;7.90;99.90;;;;;;5071483;28;19924;-69
2023/04/28 07:38:05;;;;;;;;;;;7.90;99.90;;;;;;5007856;28;1813001;-68
2023/04/28 07:40:30;;;;;;;;;;;8.00;99.90;;;;;;5055416;28;20023;-68
2023/04/28 07:42:56;;;;;;;;;;;8.00;99.90;;;;;;5055792;28;19925;-68
2023/04/28 07:45:21;;;;;;;;;;;8.00;99.90;;;;;;5073195;28;19925;-68
2023/04/28 07:47:47;;;;;;;;;;;8.00;99.90;;;;;;5056073;28;20019;-68
2023/04/28 07:50:13;;;;;;;;;;;7.90;99.90;;;;;;5072207;28;19932;-69
2023/04/28 07:52:38;;;;;;;;;;;7.90;99.90;;;;;;5055626;28;19932;-68
2023/04/28 07:55:05;;;;;;;;;;;7.90;99.90;;;;;;5072591;28;20342;-68
2023/04/28 07:57:30;;;;;;;;;;;8.00;99.90;;;;;;5072065;28;20513;-68
2023/04/28 07:59:56;;;;;;;;;;;8.00;99.90;;;;;;5072313;28;20019;-69
2023/04/28 08:02:21;;;;;;;;;;;8.00;99.90;;;;;;5071974;28;19947;-69
2023/04/28 08:04:47;;;;;;;;;;;8.00;99.90;;;;;;5055522;28;20271;-69
2023/04/28 08:07:13;;;;;;;;;;;8.00;99.90;;;;;;5055413;28;19932;-70
2023/04/28 08:09:41;;;;;;;;;;;8.10;99.90;;;;;;5072268;28;19925;-69
2023/04/28 08:12:07;;;;;;;;;;;8.10;99.90;;;;;;5105848;28;19968;-69
2023/04/28 08:14:33;;;;;;;;;;;8.10;99.90;;;;;;5054852;28;19921;-69
2023/04/28 08:16:58;;;;;;;;;;;8.10;99.90;;;;;;5055486;28;19932;-68
2023/04/28 08:19:24;;;;;;;;;;;8.20;99.90;;;;;;5055166;28;19925;-69
2023/04/28 08:21:49;;;;;;;;;;;8.10;99.90;;;;;;5072117;28;20344;-70
2023/04/28 08:24:15;;;;;;;;;;;8.10;99.90;;;;;;5054582;28;20007;-70
2023/04/28 08:26:41;;;;;;;;;;;8.20;99.90;;;;;;5071743;28;19924;-69
2023/04/28 08:29:06;;;;;;;;;;;8.20;99.90;;;;;;5055291;28;20012;-69
2023/04/28 08:31:32;;;;;;;;;;;8.20;99.90;;;;;;5105334;28;19925;-68
2023/04/28 08:33:58;;;;;;;;;;;8.20;99.90;;;;;;5071525;28;19924;-68
2023/04/28 08:36:25;;;;;;;;;;;8.20;99.90;;;;;;5105170;28;20296;-69
2023/04/28 08:38:51;;;;;;;;;;;8.30;99.90;;;;;;5071295;28;19928;-69
2023/04/28 08:41:18;;;;;;;;;;;;;;;;;;5054919;28;19924;-70
2023/04/28 08:43:44;;;;;;;;;;;8.30;99.90;;;;;;5071671;28;20011;-68
2023/04/28 08:46:10;;;;;;;;;;;8.40;99.90;;;;;;5055107;28;20046;-68
2023/04/28 08:48:39;;;;;;;;;;;8.50;99.90;;;;;;5054656;28;19924;-69
2023/04/28 08:51:05;;;;;;;;;;;8.50;99.90;;;;;;5071706;28;20285;-69
2023/04/28 08:53:35;;;;;;;;;;;8.50;99.90;;;;;;5054446;28;19924;-68
2023/04/28 08:56:01;;;;;;;;;;;8.50;99.90;;;;;;5072492;28;19932;-69
2023/04/28 08:58:27;;;;;;;;;;;8.60;99.90;;;;;;5070879;28;20019;-68
2023/04/28 09:00:53;;;;;;;;;;;8.50;99.90;;;;;;5038313;28;19976;-69
2023/04/28 09:03:19;;;;;;;;;;;8.50;99.90;;;;;;5054137;28;20411;-69
2023/04/28 09:05:44;;;;;;;;;;;8.50;99.90;;;;;;5037932;28;19928;-69
2023/04/28 09:08:13;;;;;;;;;;;8.50;99.90;;;;;;5054540;28;20024;-68
2023/04/28 09:10:39;;;;;;;;;;;8.50;99.90;;;;;;5070936;28;19931;-69
2023/04/28 09:13:05;;;;;;;;;;;8.50;99.90;;;;;;5071047;28;19925;-69
2023/04/28 09:15:35;;;;;;;;;;;8.60;99.90;;;;;;5070866;28;20019;-68
2023/04/28 09:18:01;;;;;;;;;;;8.60;99.90;;;;;;5071218;28;19928;-69
2023/04/28 09:20:28;;;;;;;;;;;8.70;99.90;;;;;;5071806;28;19925;-69
2023/04/28 09:22:54;;;;;;;;;;;8.80;99.90;;;;;;5072149;28;20338;-68
2023/04/28 09:25:21;;;;;;;;;;;8.80;99.90;;;;;;5072077;28;19929;-69
2023/04/28 09:27:47;;;;;;;;;;;8.90;99.90;;;;;;5071920;28;19934;-68
2023/04/28 09:30:13;;;;;;;;;;;9.00;99.90;;;;;;5071048;28;20027;-69
2023/04/28 09:32:39;;;;;;;;;;;9.10;99.90;;;;;;5070558;28;19982;-69
2023/04/28 09:35:06;;;;;;;;;;;9.10;99.90;;;;;;5070813;28;19998;-69
2023/04/28 09:37:32;;;;;;;;;;;9.10;99.90;;;;;;5053138;28;20369;-68
2023/04/28 09:40:03;;;;;;;;;;;9.10;99.90;;;;;;5070519;28;19925;-68
2023/04/28 09:42:35;;;;;;;;;;;9.20;99.90;;;;;;5071533;28;19925;-68
2023/04/28 09:45:02;;;;;;;;;;;9.30;99.90;;;;;;5070934;28;19976;-69
2023/04/28 09:47:28;;;;;;;;;;;9.50;99.90;;;;;;5070089;28;19924;-68
2023/04/28 09:49:55;;;;;;;;;;;9.70;99.90;;;;;;5054034;28;20288;-68
2023/04/28 09:52:21;;;;;;;;;;;9.90;99.90;;;;;;5054192;28;20019;-67
2023/04/28 09:54:48;;;;;;;;;;;10.10;99.90;;;;;;5053561;28;20025;-68
2023/04/28 09:57:15;;;;;;;;;;;10.30;99.90;;;;;;5070989;28;19924;-67
2023/04/28 09:59:41;;;;;;;;;;;10.50;99.90;;;;;;5071436;28;19928;-69
2023/04/28 10:02:07;;;;;;;;;;;10.80;99.90;;;;;;5070648;28;20015;-69
2023/04/28 10:04:33;;;;;;;;;;;11.00;99.90;;;;;;5053761;28;19928;-68
2023/04/28 10:07:00;;;;;;;;;;;11.20;99.90;;;;;;5070902;28;19924;-69
2023/04/28 10:09:27;;;;;;;;;;;11.30;99.90;;;;;;5070453;28;19924;-71
2023/04/28 10:11:53;;;;;;;;;;;11.40;99.90;;;;;;5054119;28;19928;-67
2023/04/28 10:14:19;;;;;;;;;;;11.50;99.90;;;;;;5071727;28;19925;-67
2023/04/28 10:16:46;;;;;;;;;;;11.70;99.90;;;;;;5037376;28;19929;-68
2023/04/28 10:19:12;;;;;;;;;;;11.70;99.90;;;;;;5074055;28;20015;-68
2023/04/28 10:21:44;;;;;;;;;;;11.70;99.90;;;;;;5073876;28;20015;-68
2023/04/28 10:24:25;;;;;;;;;;;11.60;99.90;;;;;;5074023;28;20393;-67
2023/04/28 10:27:07;;;;;;;;;;;11.60;99.90;;;;;;5074940;28;19925;-69
2023/04/28 10:29:33;;;;;;;;;;;11.60;99.90;;;;;;5073480;28;20286;-68
2023/04/28 10:32:15;;;;;;;;;;;11.70;99.90;;;;;;5057406;28;19925;-68
2023/04/28 10:34:41;;;;;;;;;;;11.70;99.90;;;;;;5056744;28;19925;-68
2023/04/28 10:37:07;;;;;;;;;;;11.90;99.90;;;;;;5073666;28;19978;-68
2023/04/28 10:39:32;;;;;;;;;;;12.00;99.90;;;;;;5074417;28;19975;-69
2023/04/28 10:41:58;;;;;;;;;;;12.00;99.90;;;;;;5057179;28;19925;-68
2023/04/28 10:44:27;;;;;;;;;;;12.10;99.90;;;;;;5090617;28;20011;-68
2023/04/28 10:47:02;;;;;;;;;;;12.10;99.90;;;;;;5073148;28;19921;-68
2023/04/28 10:49:47;;;;;;;;;;;12.20;99.90;;;;;;5073731;28;20358;-69
2023/04/28 10:52:31;;;;;;;;;;;12.20;99.90;;;;;;5074360;28;19928;-68
2023/04/28 10:55:15;;;;;;;;;;;12.20;99.90;;;;;;5072908;28;19924;-68
2023/04/28 10:57:41;;;;;;;;;;;12.20;99.90;;;;;;5072952;28;19928;-68
2023/04/28 11:00:26;;;;;;;;;;;12.30;99.90;;;;;;5040228;28;19931;-68
2023/04/28 11:02:53;;;;;;;;;;;12.30;99.90;;;;;;5072968;28;19924;-68
2023/04/28 11:05:18;;;;;;;;;;;12.30;99.90;;;;;;5056749;28;20024;-68
2023/04/28 11:08:03;;;;;;;;;;;12.20;99.90;;;;;;5072927;28;20023;-68
2023/04/28 11:10:49;;;;;;;;;;;12.10;99.90;;;;;;5056561;28;19924;-68
2023/04/28 11:13:24;;;;;;;;;;;12.00;99.90;;;;;;5058697;28;19950;-69
2023/04/28 11:16:01;;;;;;;;;;;11.80;99.90;;;;;;5072500;28;19925;-68
2023/04/28 11:18:42;;;;;;;;;;;11.60;99.90;;;;;;5073977;28;20398;-68
2023/04/28 11:21:07;;;;;;;;;;;11.60;99.90;;;;;;5073130;28;19924;-68
2023/04/28 11:23:33;;;;;;;;;;;11.50;99.90;;;;;;5072690;28;19924;-67
2023/04/28 11:25:58;;;;;;;;;;;11.40;99.90;;;;;;5072537;28;19928;-67
2023/04/28 11:28:24;;;;;;;;;;;11.40;99.90;;;;;;5071243;28;20042;-67
2023/04/28 11:30:49;;;;;;;;;;;11.40;99.90;;;;;;5073369;28;19928;-68
2023/04/28 11:33:16;;;;;;;;;;;11.40;99.90;;;;;;5073332;28;19924;-68
2023/04/28 11:35:42;;;;;;;;;;;11.40;99.90;;;;;;5055726;28;20015;-69
2023/04/28 11:38:07;;;;;;;;;;;11.40;99.90;;;;;;5072076;28;20328;-68
2023/04/28 11:40:34;;;;;;;;;;;11.50;99.90;;;;;;5072627;28;19975;-68
2023/04/28 11:43:00;;;;;;;;;;;11.50;99.90;;;;;;5055669;28;19947;-68
2023/04/28 11:45:26;;;;;;;;;;;11.40;99.90;;;;;;5072250;28;20396;-68
2023/04/28 11:47:51;;;;;;;;;;;11.50;99.90;;;;;;5072184;28;20024;-68
2023/04/28 11:50:34;;;;;;;;;;;11.50;99.90;;;;;;5072512;28;19925;-68
2023/04/28 11:52:59;;;;;;;;;;;11.50;99.90;;;;;;5073230;28;20581;-67
2023/04/28 11:55:27;;;;;;;;;;;11.60;99.90;;;;;;5072265;28;19960;-67
2023/04/28 11:58:11;;;;;;;;;;;11.70;99.90;;;;;;5072073;28;19931;-69
2023/04/28 12:00:37;;;;;;;;;;;11.70;99.90;;;;;;5072324;28;19982;-67
2023/04/28 12:03:06;;;;;;;;;;;11.80;99.90;;;;;;5073109;28;19976;-67
2023/04/28 12:05:34;;;;;;;;;;;11.80;99.90;;;;;;5073152;28;19932;-67
2023/04/28 12:08:00;;;;;;;;;;;11.80;99.90;;;;;;5054839;28;20467;-67
2023/04/28 12:10:26;;;;;;;;;;;11.80;99.90;;;;;;5073172;28;19925;-69
2023/04/28 12:12:51;;;;;;;;;;;11.80;99.90;;;;;;5071956;28;19932;-69
2023/04/28 12:15:17;;;;;;;;;;;11.80;99.90;;;;;;5071938;28;20285;-69
2023/04/28 12:17:43;;;;;;;;;;;11.80;99.90;;;;;;5055019;28;19965;-70
2023/04/28 12:20:10;;;;;;;;;;;11.90;99.90;;;;;;5071749;28;19979;-67
2023/04/28 12:22:49;;;;;;;;;;;11.90;99.90;;;;;;5071876;28;19977;-68
2023/04/28 12:25:16;;;;;;;;;;;11.90;99.90;;;;;;5071737;28;20077;-69
2023/04/28 12:27:57;;;;;;;;;;;11.90;99.90;;;;;;5071581;28;20015;-68
2023/04/28 12:30:23;;;;;;;;;;;11.90;99.90;;;;;;5071575;28;20323;-68
2023/04/28 12:32:49;;;;;;;;;;;11.90;99.90;;;;;;5054353;28;20398;-67
2023/04/28 12:35:15;;;;;;;;;;;11.90;99.90;;;;;;5054989;28;19967;-67
2023/04/28 12:37:43;;;;;;;;;;;11.90;99.90;;;;;;5105136;28;19933;-68
2023/04/28 12:40:09;;;;;;;;;;;11.90;99.90;;;;;;5054349;28;19931;-68
2023/04/28 12:42:35;;;;;;;;;;;11.90;99.90;;;;;;5071709;28;20258;-68
2023/04/28 12:45:01;;;;;;;;;;;11.90;99.90;;;;;;5054521;28;20528;-68
2023/04/28 12:47:26;;;;;;;;;;;11.90;99.90;;;;;;5054859;28;20011;-68
2023/04/28 12:49:52;;;;;;;;;;;11.80;99.90;;;;;;5070951;28;20297;-68
2023/04/28 12:52:18;;;;;;;;;;;11.80;99.90;;;;;;5071414;28;19924;-67
2023/04/28 12:54:47;;;;;;;;;;;11.80;99.90;;;;;;5071156;28;20023;-67
2023/04/28 12:57:13;;;;;;;;;;;11.80;99.90;;;;;;5038314;28;19924;-67
2023/04/28 12:59:39;;;;;;;;;;;11.80;99.90;;;;;;5071046;28;20023;-67
2023/04/28 13:02:04;;;;;;;;;;;11.90;99.90;;;;;;5054244;28;20019;-67
2023/04/28 13:04:30;;;;;;;;;;;11.90;99.90;;;;;;5054561;28;20385;-67
2023/04/28 13:06:57;;;;;;;;;;;11.90;99.90;;;;;;5054078;28;19928;-67
2023/04/28 13:09:23;;;;;;;;;;;11.90;99.90;;;;;;5072120;28;19924;-67
2023/04/28 13:11:49;;;;;;;;;;;11.90;99.90;;;;;;5054195;28;19973;-68
2023/04/28 13:14:15;;;;;;;;;;;12.00;99.90;;;;;;5070850;28;19928;-68
2023/04/28 13:16:40;;;;;;;;;;;12.00;99.90;;;;;;5071098;28;20074;-68
2023/04/28 13:19:12;;;;;;;;;;;12.10;99.90;;;;;;5070536;28;19925;-67
2023/04/28 13:21:41;;;;;;;;;;;12.20;99.90;;;;;;5054530;28;20346;-68
2023/04/28 13:24:07;;;;;;;;;;;12.20;99.90;;;;;;5070385;28;19924;-67
2023/04/28 13:26:33;;;;;;;;;;;12.20;99.90;;;;;;5054369;28;19928;-67
2023/04/28 13:29:00;;;;;;;;;;;12.20;99.90;;;;;;5054096;28;19931;-67
2023/04/28 13:31:26;;;;;;;;;;;12.10;99.90;;;;;;5071186;28;19978;-67
2023/04/28 13:33:51;;;;;;;;;;;12.10;99.90;;;;;;5070379;28;19928;-69
2023/04/28 13:36:17;;;;;;;;;;;12.10;99.90;;;;;;5071961;28;19925;-68
2023/04/28 13:38:47;;;;;;;;;;;12.00;99.90;;;;;;5037309;28;19950;-67
2023/04/28 13:41:16;;;;;;;;;;;12.00;99.90;;;;;;5070502;28;19987;-67
2023/04/28 13:43:42;;;;;;;;;;;11.90;99.90;;;;;;5054301;28;20378;-67
2023/04/28 13:46:08;;;;;;;;;;;11.90;99.90;;;;;;5070749;28;19978;-68
2023/04/28 13:48:35;;;;;;;;;;;11.90;99.90;;;;;;5071841;28;19924;-67
2023/04/28 13:51:01;;;;;;;;;;;11.90;99.90;;;;;;5053869;28;19977;-67
2023/04/28 13:53:27;;;;;;;;;;;11.90;99.90;;;;;;5075106;28;19978;-67
2023/04/28 13:55:56;;;;;;;;;;;11.90;99.90;;;;;;5074674;28;20006;-67
2023/04/28 13:58:25;;;;;;;;;;;11.90;99.90;;;;;;5075548;28;19925;-67
2023/04/28 14:00:51;;;;;;;;;;;11.80;99.90;;;;;;5074605;28;19928;-68
2023/04/28 14:03:18;;;;;;;;;;;11.80;99.90;;;;;;5073996;28;20376;-67
2023/04/28 14:05:43;;;;;;;;;;;11.70;99.90;;;;;;5074565;28;19983;-68
2023/04/28 14:08:09;;;;;;;;;;;11.70;99.90;;;;;;5075215;28;19971;-67
2023/04/28 14:10:35;;;;;;;;;;;11.60;99.90;;;;;;5074142;28;19925;-68
2023/04/28 14:13:00;;;;;;;;;;;11.60;99.90;;;;;;5073657;28;20077;-68
2023/04/28 14:15:26;;;;;;;;;;;11.50;99.90;;;;;;5075343;28;19948;-68
2023/04/28 14:17:52;;;;;;;;;;;11.50;99.90;;;;;;5074400;28;19931;-68
2023/04/28 14:20:17;;;;;;;;;;;11.50;99.90;;;;;;5074919;28;19939;-68
2023/04/28 14:22:43;;;;;;;;;;;11.50;99.90;;;;;;5074022;28;19924;-68